createdAt,value
2018-03-04T00:00:32.565Z,66.10
2018-03-04T00:03:00.141Z,66.47
2018-03-04T00:05:27.836Z,66.76
2018-03-04T00:07:55.538Z,66.36
2018-03-04T00:10:23.164Z,66.70
2018-03-04T00:12:50.797Z,67.65
2018-03-04T00:15:18.454Z,67.51
2018-03-04T00:17:46.104Z,67.72
2018-03-04T00:20:13.720Z,67.72
2018-03-04T00:22:41.716Z,67.42
2018-03-04T00:25:10.404Z,68.37
2018-03-04T00:27:38.121Z,68.55
2018-03-04T00:30:05.750Z,68.84
2018-03-04T00:32:33.372Z,69.22
2018-03-04T00:35:00.954Z,70.20
2018-03-04T00:37:28.593Z,69.11
2018-03-04T00:39:56.200Z,69.38
2018-03-04T00:42:23.787Z,70.39
2018-03-04T00:44:51.409Z,70.63
2018-03-04T00:47:19.629Z,70.73
2018-03-04T00:49:47.276Z,71.04
2018-03-04T00:52:15.155Z,71.51
2018-03-04T00:54:42.790Z,72.31
2018-03-04T00:57:10.563Z,72.91
2018-03-04T00:59:38.176Z,73.35
2018-03-04T01:02:05.827Z,73.91
2018-03-04T01:04:33.409Z,74.64
2018-03-04T01:07:01.010Z,74.72
2018-03-04T01:09:30.012Z,74.84
2018-03-04T01:11:57.594Z,75.27
2018-03-04T01:14:25.183Z,75.59
2018-03-04T01:16:52.781Z,75.43
2018-03-04T01:19:21.245Z,75.39
2018-03-04T01:21:48.817Z,75.56
2018-03-04T01:24:16.416Z,75.44
2018-03-04T01:26:44.002Z,75.86
2018-03-04T01:29:11.638Z,76.00
2018-03-04T01:31:39.232Z,76.10
2018-03-04T01:34:06.924Z,76.52
2018-03-04T01:36:34.532Z,76.90
2018-03-04T01:39:02.122Z,76.75
2018-03-04T01:41:29.905Z,77.06
2018-03-04T01:43:57.574Z,77.19
2018-03-04T01:46:25.152Z,77.11
2018-03-04T01:48:52.711Z,77.47
2018-03-04T01:51:21.506Z,77.57
2018-03-04T01:53:49.478Z,77.83
2018-03-04T01:56:17.088Z,78.19
2018-03-04T01:58:45.702Z,78.52
2018-03-04T02:01:13.347Z,78.69
2018-03-04T02:03:40.938Z,78.83
2018-03-04T02:06:08.622Z,78.56
2018-03-04T02:08:36.325Z,78.77
2018-03-04T02:11:03.977Z,79.40
2018-03-04T02:13:31.605Z,78.99
2018-03-04T02:15:59.741Z,78.49
2018-03-04T02:18:27.559Z,78.53
2018-03-04T02:20:55.423Z,78.41
2018-03-04T02:23:23.101Z,78.87
2018-03-04T02:25:50.782Z,79.75
2018-03-04T02:28:18.352Z,79.73
2018-03-04T02:30:46.146Z,79.53
2018-03-04T02:33:15.286Z,79.30
2018-03-04T02:35:42.856Z,79.22
2018-03-04T02:38:10.535Z,78.97
2018-03-04T02:40:38.163Z,79.19
2018-03-04T02:43:06.099Z,79.75
2018-03-04T02:45:34.090Z,79.20
2018-03-04T02:48:01.718Z,79.06
2018-03-04T02:50:29.343Z,79.29
2018-03-04T02:52:57.001Z,79.50
2018-03-04T02:55:25.832Z,79.46
2018-03-04T02:57:53.462Z,79.91
2018-03-04T03:00:21.085Z,80.08
2018-03-04T03:02:48.702Z,80.00
2018-03-04T03:05:16.275Z,79.75
2018-03-04T03:07:43.941Z,78.83
2018-03-04T03:10:11.747Z,78.58
2018-03-04T03:12:41.090Z,79.32
2018-03-04T03:15:09.393Z,79.63
2018-03-04T03:17:37.467Z,79.38
2018-03-04T03:20:05.077Z,79.54
2018-03-04T03:22:32.666Z,80.22
2018-03-04T03:25:01.002Z,80.07
2018-03-04T03:27:28.690Z,79.87
2018-03-04T03:29:59.305Z,79.50
2018-03-04T03:32:28.998Z,79.79
2018-03-04T03:34:56.791Z,80.07
2018-03-04T03:37:24.391Z,80.17
2018-03-04T03:39:52.013Z,79.89
2018-03-04T03:42:19.652Z,80.06
2018-03-04T03:44:47.256Z,80.09
2018-03-04T03:47:14.929Z,79.76
2018-03-04T03:49:48.452Z,79.63
2018-03-04T03:52:18.474Z,79.70
2018-03-04T03:54:47.016Z,79.53
2018-03-04T03:57:19.271Z,79.31
2018-03-04T03:59:47.391Z,79.42
2018-03-04T04:02:15.034Z,79.90
2018-03-04T04:04:42.788Z,80.15
2018-03-04T04:07:11.136Z,80.38
2018-03-04T04:09:38.764Z,80.49
2018-03-04T04:12:06.360Z,80.37
2018-03-04T04:14:33.965Z,80.42
2018-03-04T04:17:01.604Z,80.33
2018-03-04T04:19:29.925Z,79.74
2018-03-04T04:21:57.642Z,79.50
2018-03-04T04:24:25.558Z,78.89
2018-03-04T04:26:53.144Z,78.90
2018-03-04T04:29:22.511Z,78.87
2018-03-04T04:31:50.177Z,79.16
2018-03-04T04:34:17.789Z,79.33
2018-03-04T04:36:45.682Z,79.60
2018-03-04T04:39:13.333Z,79.73
2018-03-04T04:41:40.910Z,79.76
2018-03-04T04:44:09.770Z,79.57
2018-03-04T04:46:37.437Z,79.48
2018-03-04T04:49:05.383Z,80.22
2018-03-04T04:51:33.012Z,80.51
2018-03-04T04:54:00.618Z,80.79
2018-03-04T04:56:28.221Z,80.71
2018-03-04T04:58:55.850Z,80.28
2018-03-04T05:01:23.461Z,79.93
2018-03-04T05:03:51.038Z,80.34
2018-03-04T05:06:18.872Z,80.25
2018-03-04T05:08:46.484Z,80.29
2018-03-04T05:11:14.638Z,80.78
2018-03-04T05:13:42.337Z,81.43
2018-03-04T05:16:10.058Z,81.20
2018-03-04T05:18:37.638Z,81.33
2018-03-04T05:21:05.741Z,81.31
2018-03-04T05:23:36.384Z,81.82
2018-03-04T05:26:03.989Z,81.57
2018-03-04T05:28:31.584Z,81.40
2018-03-04T05:30:59.177Z,81.01
2018-03-04T05:33:29.250Z,80.76
2018-03-04T05:35:57.004Z,80.91
2018-03-04T05:38:25.005Z,80.95
2018-03-04T05:40:52.608Z,81.13
2018-03-04T05:43:21.152Z,81.46
2018-03-04T05:45:48.752Z,81.61
2018-03-04T05:48:16.347Z,81.19
2018-03-04T05:50:44.029Z,80.74
2018-03-04T05:53:11.887Z,80.58
2018-03-04T05:55:39.474Z,80.34
2018-03-04T05:58:07.087Z,80.19
2018-03-04T06:03:25.649Z,80.04
2018-03-04T06:05:58.052Z,79.73
2018-03-04T06:08:27.060Z,79.16
2018-03-04T06:10:54.675Z,79.20
2018-03-04T06:13:23.689Z,78.04
2018-03-04T06:15:51.294Z,76.87
2018-03-04T06:18:18.895Z,76.63
2018-03-04T06:20:46.444Z,76.28
2018-03-04T06:23:15.003Z,75.93
2018-03-04T06:25:42.684Z,75.32
2018-03-04T06:28:10.371Z,76.04
2018-03-04T06:30:37.952Z,76.03
2018-03-04T06:33:06.225Z,76.65
2018-03-04T06:35:34.123Z,74.68
2018-03-04T06:38:01.745Z,73.39
2018-03-04T06:40:29.421Z,73.86
2018-03-04T06:42:56.999Z,74.33
2018-03-04T06:45:24.575Z,73.09
2018-03-04T06:47:52.177Z,71.35
2018-03-04T06:50:19.767Z,71.45
2018-03-04T06:52:47.348Z,72.96
2018-03-04T06:55:15.019Z,73.69
2018-03-04T06:57:42.611Z,73.72
2018-03-04T07:00:10.201Z,72.48
2018-03-04T07:02:37.802Z,70.77
2018-03-04T07:05:05.406Z,68.87
2018-03-04T07:07:35.887Z,68.54
2018-03-04T07:10:03.663Z,67.33
2018-03-04T07:12:33.444Z,67.40
2018-03-04T07:15:01.027Z,67.87
2018-03-04T07:17:28.639Z,68.03
2018-03-04T07:19:57.317Z,68.49
2018-03-04T07:22:24.871Z,66.57
2018-03-04T07:24:52.467Z,66.76
2018-03-04T07:27:21.849Z,68.69
2018-03-04T07:29:49.473Z,68.56
2018-03-04T07:32:21.348Z,66.54
2018-03-04T07:34:48.934Z,66.66
2018-03-04T07:37:18.217Z,65.92
2018-03-04T07:42:19.748Z,67.40
2018-03-04T07:44:47.346Z,69.01
2018-03-04T07:47:19.032Z,66.15
2018-03-04T07:49:49.724Z,64.47
2018-03-04T07:52:17.293Z,64.11
2018-03-04T07:54:44.873Z,63.12
2018-03-04T07:57:13.924Z,62.50
2018-03-04T07:59:42.970Z,62.21
2018-03-04T08:02:11.654Z,64.33
2018-03-04T08:04:39.265Z,65.38
2018-03-04T08:07:07.197Z,66.04
2018-03-04T08:09:35.152Z,66.79
2018-03-04T08:12:02.776Z,67.29
2018-03-04T08:14:30.345Z,63.91
2018-03-04T08:16:58.026Z,61.71
2018-03-04T08:19:25.674Z,59.84
2018-03-04T08:21:53.255Z,58.23
2018-03-04T08:24:32.770Z,56.91
2018-03-04T08:27:12.504Z,57.55
2018-03-04T08:29:40.110Z,59.82
2018-03-04T08:32:07.735Z,61.75
2018-03-04T08:34:35.440Z,61.88
2018-03-04T08:37:03.049Z,62.81
2018-03-04T08:39:31.486Z,61.65
2018-03-04T08:41:59.821Z,61.27
2018-03-04T08:44:28.493Z,62.50
2018-03-04T08:46:59.729Z,62.69
2018-03-04T08:49:27.396Z,63.04
2018-03-04T08:51:54.971Z,60.20
2018-03-04T08:54:22.906Z,58.05
2018-03-04T08:56:50.523Z,57.88
2018-03-04T08:59:18.316Z,58.45
2018-03-04T09:01:48.575Z,58.24
2018-03-04T09:04:16.194Z,56.98
2018-03-04T09:06:43.765Z,54.06
2018-03-04T09:09:11.760Z,52.99
2018-03-04T09:11:39.337Z,55.04
2018-03-04T09:14:06.955Z,54.55
2018-03-04T09:16:34.767Z,52.21
2018-03-04T09:19:02.344Z,51.78
2018-03-04T09:21:30.560Z,53.20
2018-03-04T09:23:58.517Z,52.76
2018-03-04T09:26:26.097Z,55.19
2018-03-04T09:28:53.762Z,57.07
2018-03-04T09:31:23.060Z,58.25
2018-03-04T09:33:50.648Z,56.30
2018-03-04T09:36:18.199Z,53.96
2018-03-04T09:38:45.801Z,52.34
2018-03-04T09:41:13.436Z,52.43
2018-03-04T09:43:41.051Z,52.92
2018-03-04T09:46:08.612Z,53.27
2018-03-04T09:48:36.189Z,50.33
2018-03-04T09:51:03.812Z,50.50
2018-03-04T09:53:32.076Z,52.55
2018-03-04T09:55:59.715Z,53.04
2018-03-04T09:58:27.298Z,50.18
2018-03-04T10:00:54.902Z,49.14
2018-03-04T10:03:22.569Z,49.04
2018-03-04T10:05:50.992Z,48.61
2018-03-04T10:08:18.582Z,49.31
2018-03-04T10:10:46.205Z,48.25
2018-03-04T10:13:13.783Z,47.74
2018-03-04T10:15:42.170Z,48.13
2018-03-04T10:18:10.113Z,49.26
2018-03-04T10:20:37.671Z,50.60
2018-03-04T10:23:05.650Z,48.95
2018-03-04T10:25:35.987Z,48.86
2018-03-04T10:28:03.751Z,47.68
2018-03-04T10:30:32.818Z,47.53
2018-03-04T10:33:00.364Z,48.42
2018-03-04T10:35:27.928Z,48.41
2018-03-04T10:37:55.498Z,49.39
2018-03-04T10:40:23.238Z,48.56
2018-03-04T10:42:50.812Z,49.15
2018-03-04T10:45:19.078Z,50.56
2018-03-04T10:47:46.690Z,49.57
2018-03-04T10:50:14.695Z,49.73
2018-03-04T10:52:42.404Z,49.28
2018-03-04T10:55:10.440Z,48.33
2018-03-04T10:57:38.114Z,48.83
2018-03-04T11:00:05.849Z,46.88
2018-03-04T11:02:38.055Z,47.51
2018-03-04T11:05:05.986Z,47.57
2018-03-04T11:07:33.574Z,46.89
2018-03-04T11:10:01.160Z,47.03
2018-03-04T11:12:28.709Z,47.29
2018-03-04T11:14:56.309Z,47.41
2018-03-04T11:17:25.932Z,48.07
2018-03-04T11:19:53.680Z,48.32
2018-03-04T11:22:21.264Z,48.73
2018-03-04T11:24:48.834Z,47.73
2018-03-04T11:27:17.487Z,45.50
2018-03-04T11:29:45.174Z,44.23
2018-03-04T11:32:12.826Z,46.51
2018-03-04T11:34:42.268Z,46.92
2018-03-04T11:37:10.678Z,46.96
2018-03-04T11:39:38.431Z,49.68
2018-03-04T11:42:06.106Z,49.20
2018-03-04T11:44:34.996Z,47.39
2018-03-04T11:47:02.665Z,48.82
2018-03-04T11:49:30.241Z,49.08
2018-03-04T11:51:58.242Z,48.01
2018-03-04T11:54:25.915Z,44.16
2018-03-04T11:56:53.507Z,45.79
2018-03-04T11:59:21.137Z,43.99
2018-03-04T12:01:49.530Z,43.69
2018-03-04T12:04:17.345Z,42.36
2018-03-04T12:06:45.035Z,42.27
2018-03-04T12:09:13.127Z,43.37
2018-03-04T12:11:40.743Z,46.39
2018-03-04T12:14:08.384Z,44.35
2018-03-04T12:16:35.949Z,44.96
2018-03-04T12:19:03.552Z,45.20
2018-03-04T12:21:33.574Z,45.54
2018-03-04T12:24:01.308Z,44.82
2018-03-04T12:26:28.949Z,44.35
2018-03-04T12:28:56.571Z,44.14
2018-03-04T12:31:24.182Z,46.96
2018-03-04T12:33:51.789Z,44.17
2018-03-04T12:36:19.416Z,42.91
2018-03-04T12:38:47.055Z,42.90
2018-03-04T12:41:14.656Z,43.60
2018-03-04T12:43:42.238Z,43.05
2018-03-04T12:46:10.167Z,41.95
2018-03-04T12:48:37.809Z,42.22
2018-03-04T12:51:05.996Z,43.08
2018-03-04T12:53:33.620Z,42.05
2018-03-04T12:56:01.260Z,43.19
2018-03-04T12:58:28.884Z,42.00
2018-03-04T13:00:56.537Z,42.50
2018-03-04T13:03:24.326Z,40.80
2018-03-04T13:05:51.976Z,38.45
2018-03-04T13:08:19.685Z,37.90
2018-03-04T13:10:47.316Z,36.92
2018-03-04T13:13:14.919Z,33.67
2018-03-04T13:15:43.390Z,33.40
2018-03-04T13:18:12.666Z,34.29
2018-03-04T13:20:40.285Z,34.19
2018-03-04T13:23:08.407Z,34.61
2018-03-04T13:25:36.485Z,33.37
2018-03-04T13:28:04.071Z,32.83
2018-03-04T13:30:32.731Z,33.09
2018-03-04T13:33:00.430Z,35.99
2018-03-04T13:35:28.809Z,38.03
2018-03-04T13:37:56.373Z,35.60
2018-03-04T13:40:23.938Z,37.27
2018-03-04T13:42:51.851Z,36.96
2018-03-04T13:45:21.112Z,37.67
2018-03-04T13:47:48.875Z,35.98
2018-03-04T13:50:16.504Z,36.50
2018-03-04T13:52:44.266Z,34.84
2018-03-04T13:55:12.262Z,37.86
2018-03-04T13:57:39.962Z,37.92
2018-03-04T14:00:07.568Z,39.45
2018-03-04T14:02:35.240Z,41.33
2018-03-04T14:05:02.846Z,41.85
2018-03-04T14:07:32.595Z,40.45
2018-03-04T14:10:00.195Z,38.34
2018-03-04T14:12:27.789Z,40.35
2018-03-04T14:14:55.369Z,40.45
2018-03-04T14:17:24.117Z,41.30
2018-03-04T14:19:51.734Z,40.16
2018-03-04T14:22:19.726Z,38.51
2018-03-04T14:24:47.308Z,40.83
2018-03-04T14:27:14.937Z,39.98
2018-03-04T14:29:42.530Z,39.02
2018-03-04T14:32:10.293Z,38.04
2018-03-04T14:34:37.911Z,39.00
2018-03-04T14:37:05.858Z,39.98
2018-03-04T14:39:33.738Z,38.57
2018-03-04T14:42:01.330Z,36.55
2018-03-04T14:44:28.905Z,37.24
2018-03-04T14:46:56.533Z,38.02
2018-03-04T14:49:24.819Z,38.84
2018-03-04T14:51:52.949Z,40.74
2018-03-04T14:54:20.621Z,42.76
2018-03-04T14:56:48.493Z,44.14
2018-03-04T14:59:16.461Z,44.30
2018-03-04T15:01:46.941Z,45.94
2018-03-04T15:04:14.867Z,46.07
2018-03-04T15:06:42.503Z,44.91
2018-03-04T15:09:12.066Z,45.10
2018-03-04T15:11:48.630Z,45.96
2018-03-04T15:14:16.283Z,45.71
2018-03-04T15:16:44.209Z,47.32
2018-03-04T15:19:12.192Z,48.17
2018-03-04T15:21:39.932Z,47.26
2018-03-04T15:24:08.083Z,45.64
2018-03-04T15:26:37.513Z,45.90
2018-03-04T15:29:05.764Z,47.15
2018-03-04T15:31:33.685Z,49.97
2018-03-04T15:34:01.327Z,49.43
2018-03-04T15:36:29.229Z,50.19
2018-03-04T15:38:56.865Z,51.87
2018-03-04T15:41:33.603Z,50.49
2018-03-04T15:44:01.220Z,49.68
2018-03-04T15:46:32.341Z,48.79
2018-03-04T15:48:59.964Z,48.88
2018-03-04T15:51:27.616Z,48.33
2018-03-04T15:53:55.256Z,49.16
2018-03-04T15:56:23.064Z,49.08
2018-03-04T15:58:55.037Z,49.88
2018-03-04T16:01:24.426Z,51.44
2018-03-04T16:03:52.040Z,51.84
2018-03-04T16:06:19.660Z,52.87
2018-03-04T16:08:47.234Z,52.72
2018-03-04T16:11:15.172Z,53.61
2018-03-04T16:13:42.843Z,55.46
2018-03-04T16:16:10.734Z,56.59
2018-03-04T16:18:38.788Z,57.50
2018-03-04T16:21:06.913Z,59.32
2018-03-04T16:23:34.545Z,62.14
2018-03-04T16:26:02.150Z,63.95
2018-03-04T16:28:29.780Z,62.80
2018-03-04T16:30:57.462Z,64.06
2018-03-04T16:33:32.614Z,63.76
2018-03-04T16:36:00.279Z,67.43
2018-03-04T16:38:28.533Z,68.74
2018-03-04T16:40:56.162Z,69.72
2018-03-04T16:43:24.193Z,71.69
2018-03-04T16:45:51.789Z,73.12
2018-03-04T16:48:19.398Z,72.38
2018-03-04T16:50:47.022Z,73.27
2018-03-04T16:53:14.692Z,73.44
2018-03-04T16:55:42.288Z,75.29
2018-03-04T16:58:09.953Z,74.43
2018-03-04T17:00:37.591Z,73.96
2018-03-04T17:03:05.280Z,74.61
2018-03-04T17:05:32.929Z,75.87
2018-03-04T17:08:00.542Z,75.89
2018-03-04T17:10:28.209Z,77.34
2018-03-04T17:12:55.899Z,77.35
2018-03-04T17:15:23.751Z,77.21
2018-03-04T17:17:51.340Z,77.22
2018-03-04T17:20:20.954Z,78.12
2018-03-04T17:22:48.745Z,78.03
2018-03-04T17:25:19.187Z,77.93
2018-03-04T17:27:49.028Z,78.30
2018-03-04T17:32:54.269Z,77.73
2018-03-04T17:35:33.578Z,77.49
2018-03-04T17:38:05.939Z,78.01
2018-03-04T17:40:39.716Z,77.90
2018-03-04T17:48:24.043Z,78.85
2018-03-04T17:51:01.435Z,78.91
2018-03-04T17:53:30.509Z,78.98
2018-03-04T17:56:04.006Z,79.91
2018-03-04T17:58:36.151Z,79.79
2018-03-04T18:03:39.271Z,79.84
2018-03-04T18:08:58.924Z,80.42
2018-03-04T18:11:33.252Z,80.68
2018-03-04T18:14:03.457Z,80.86
2018-03-04T18:16:35.986Z,81.07
2018-03-04T18:21:40.359Z,81.52
2018-03-04T18:24:12.135Z,81.62
2018-03-04T18:27:00.263Z,81.44
2018-03-04T18:29:45.386Z,81.18
2018-03-04T18:32:21.671Z,81.30
2018-03-04T18:34:59.569Z,81.50
2018-03-04T18:42:46.657Z,81.28
2018-03-04T18:45:22.212Z,81.28
2018-03-04T18:50:31.478Z,81.88
2018-03-04T18:53:06.213Z,81.72
2018-03-04T18:55:39.005Z,81.75
2018-03-04T18:58:14.682Z,80.98
2018-03-04T19:06:50.201Z,78.43
2018-03-04T19:22:08.520Z,80.91
2018-03-04T19:24:43.857Z,80.78
2018-03-04T19:27:15.141Z,81.44
2018-03-04T19:32:25.913Z,81.90
2018-03-04T19:34:57.534Z,82.15
2018-03-04T19:37:27.356Z,81.86
2018-03-04T19:39:59.071Z,82.45
2018-03-04T19:42:27.873Z,82.41
2018-03-04T19:44:56.351Z,82.74
2018-03-04T19:47:30.557Z,82.30
2018-03-04T19:49:58.585Z,82.14
2018-03-04T19:52:26.498Z,81.99
2018-03-04T19:54:54.157Z,82.68
2018-03-04T19:57:22.027Z,82.60
2018-03-04T19:59:59.015Z,83.22
2018-03-04T20:02:34.994Z,83.00
2018-03-04T20:05:02.909Z,83.01
2018-03-04T20:07:31.773Z,83.39
2018-03-04T20:10:01.057Z,82.84
2018-03-04T20:12:29.548Z,83.03
2018-03-04T20:14:58.714Z,83.12
2018-03-04T20:17:27.622Z,83.00
2018-03-04T20:19:56.062Z,83.19
2018-03-04T20:22:24.770Z,83.50
2018-03-04T20:24:53.055Z,83.47
2018-03-04T20:27:24.793Z,83.61
2018-03-04T20:29:53.202Z,83.35
2018-03-04T20:32:25.447Z,83.10
2018-03-04T20:34:55.358Z,83.02
2018-03-04T20:37:24.141Z,82.70
2018-03-04T20:42:29.087Z,82.44
2018-03-04T20:44:59.131Z,82.06
2018-03-04T20:47:26.927Z,81.37
2018-03-04T20:49:54.662Z,81.53
2018-03-04T20:52:23.403Z,81.08
2018-03-04T20:54:51.403Z,80.73
2018-03-04T20:57:19.389Z,80.93
2018-03-04T20:59:47.124Z,81.06
2018-03-04T21:02:18.790Z,80.80
2018-03-04T21:04:46.578Z,81.60
2018-03-04T21:07:14.567Z,82.87
2018-03-04T21:09:42.646Z,83.20
2018-03-04T21:12:10.418Z,82.91
2018-03-04T21:14:38.072Z,83.67
2018-03-04T21:17:06.476Z,83.55
2018-03-04T21:19:36.016Z,83.21
2018-03-04T21:22:03.728Z,83.60
2018-03-04T21:24:31.447Z,83.48
2018-03-04T21:26:59.157Z,83.71
2018-03-04T21:29:27.525Z,84.11
2018-03-04T21:31:55.960Z,83.80
2018-03-04T21:34:24.824Z,84.05
2018-03-04T21:36:54.252Z,83.87
2018-03-04T21:39:22.097Z,84.00
2018-03-04T21:41:50.106Z,83.94
2018-03-04T21:44:17.822Z,83.82
2018-03-04T21:46:45.518Z,84.66
2018-03-04T21:49:13.812Z,85.26
2018-03-04T21:51:42.088Z,85.09
2018-03-04T21:54:09.889Z,85.11
2018-03-04T21:56:38.892Z,85.41
2018-03-04T21:59:10.109Z,85.24
2018-03-04T22:01:38.109Z,85.52
2018-03-04T22:04:06.224Z,85.53
2018-03-04T22:06:33.889Z,85.59
2018-03-04T22:09:01.974Z,85.18
2018-03-04T22:11:30.300Z,83.99
2018-03-04T22:13:58.127Z,83.53
2018-03-04T22:16:25.977Z,82.93
2018-03-04T22:18:53.583Z,82.16
2018-03-04T22:21:21.479Z,81.92
2018-03-04T22:23:52.563Z,81.89
2018-03-04T22:26:20.151Z,81.70
2018-03-04T22:28:48.692Z,81.52
2018-03-04T22:31:17.377Z,81.45
2018-03-04T22:33:49.014Z,81.35
2018-03-04T22:36:19.497Z,81.29
2018-03-04T22:38:47.150Z,82.01
2018-03-04T22:41:15.033Z,83.47
2018-03-04T22:43:42.608Z,83.46
2018-03-04T22:46:10.415Z,83.93
2018-03-04T22:48:38.222Z,84.39
2018-03-04T22:51:06.535Z,83.67
2018-03-04T22:53:34.246Z,83.18
2018-03-04T22:56:02.005Z,82.90
2018-03-04T22:58:29.672Z,83.39
2018-03-04T23:00:58.251Z,83.76
2018-03-04T23:03:27.272Z,83.95
2018-03-04T23:05:55.119Z,84.48
2018-03-04T23:08:24.106Z,84.63
2018-03-04T23:10:52.050Z,84.69
2018-03-04T23:13:20.234Z,85.86
2018-03-04T23:15:47.879Z,84.67
2018-03-04T23:18:20.600Z,84.74
2018-03-04T23:20:49.025Z,84.35
2018-03-04T23:23:18.145Z,84.69
2018-03-04T23:25:46.375Z,84.63
2018-03-04T23:28:14.150Z,84.61
2018-03-04T23:30:41.847Z,84.98
2018-03-04T23:33:12.254Z,85.73
2018-03-04T23:35:39.903Z,86.10
2018-03-04T23:38:07.588Z,86.08
2018-03-04T23:40:35.265Z,87.07
2018-03-04T23:43:03.031Z,86.54
2018-03-04T23:45:32.084Z,85.72
2018-03-04T23:48:01.283Z,85.81
2018-03-04T23:50:28.896Z,84.08
2018-03-04T23:52:56.825Z,83.87
2018-03-04T23:55:24.762Z,84.00
2018-03-04T23:57:52.479Z,84.69
